createdAt,value
2022-11-09T00:00:56.588Z,3.10
2022-11-09T00:03:25.466Z,3.60
2022-11-09T00:05:57.246Z,3.70
2022-11-09T00:08:24.819Z,3.63
2022-11-09T00:10:52.378Z,3.57
2022-11-09T00:13:20.446Z,3.20
2022-11-09T00:15:48.079Z,3.23
2022-11-09T00:18:15.796Z,3.50
2022-11-09T00:20:48.062Z,3.30
2022-11-09T00:23:16.637Z,3.40
2022-11-09T00:25:44.900Z,3.30
2022-11-09T00:28:12.471Z,4.10
2022-11-09T00:30:40.517Z,3.20
2022-11-09T00:33:08.720Z,3.70
2022-11-09T00:35:38.628Z,5.00
2022-11-09T00:38:08.013Z,3.40
2022-11-09T00:40:35.784Z,3.43
2022-11-09T00:43:05.566Z,3.37
2022-11-09T00:45:33.349Z,3.20
2022-11-09T00:48:00.904Z,3.57
2022-11-09T00:50:29.062Z,3.50
2022-11-09T00:52:56.662Z,3.20
2022-11-09T00:55:25.742Z,3.30
2022-11-09T00:57:53.844Z,3.00
2022-11-09T01:00:24.700Z,3.10
2022-11-09T01:02:54.031Z,3.07
2022-11-09T01:05:22.530Z,3.47
2022-11-09T01:07:50.261Z,3.40
2022-11-09T01:10:18.259Z,3.30
2022-11-09T01:12:48.858Z,3.27
2022-11-09T01:15:16.662Z,3.40
2022-11-09T01:17:44.274Z,3.40
2022-11-09T01:20:12.400Z,3.70
2022-11-09T01:22:40.161Z,3.30
2022-11-09T01:25:08.156Z,3.80
2022-11-09T01:27:36.513Z,3.90
2022-11-09T01:30:08.992Z,3.60
2022-11-09T01:32:36.975Z,4.00
2022-11-09T01:35:06.863Z,3.60
2022-11-09T01:37:34.699Z,3.30
2022-11-09T01:40:02.331Z,3.37
2022-11-09T01:42:36.293Z,4.73
2022-11-09T01:45:28.148Z,3.30
2022-11-09T01:47:59.839Z,3.30
2022-11-09T01:50:30.660Z,3.20
2022-11-09T01:52:58.623Z,3.07
2022-11-09T01:55:26.673Z,3.17
2022-11-09T01:57:55.510Z,3.33
2022-11-09T02:00:23.132Z,2.90
2022-11-09T02:02:54.392Z,3.00
2022-11-09T02:05:24.433Z,3.47
2022-11-09T02:07:54.399Z,3.20
2022-11-09T02:10:23.912Z,3.43
2022-11-09T02:12:52.703Z,3.10
2022-11-09T02:15:20.596Z,3.40
2022-11-09T02:17:51.033Z,3.30
2022-11-09T02:20:20.575Z,3.10
2022-11-09T02:22:48.183Z,3.50
2022-11-09T02:25:16.327Z,3.17
2022-11-09T02:27:44.761Z,2.90
2022-11-09T02:30:13.500Z,3.20
2022-11-09T02:32:41.579Z,3.47
2022-11-09T02:35:10.811Z,3.40
2022-11-09T02:37:42.993Z,3.23
2022-11-09T02:40:14.179Z,3.20
2022-11-09T02:42:41.870Z,3.30
2022-11-09T02:45:10.110Z,2.90
2022-11-09T02:47:39.673Z,3.00
2022-11-09T02:50:07.405Z,3.13
2022-11-09T02:52:35.130Z,2.97
2022-11-09T02:55:04.478Z,3.20
2022-11-09T02:57:32.212Z,3.00
2022-11-09T03:00:00.566Z,3.33
2022-11-09T03:02:28.590Z,3.33
2022-11-09T03:04:56.540Z,3.23
2022-11-09T03:07:24.380Z,2.77
2022-11-09T03:09:53.888Z,3.20
2022-11-09T03:12:30.558Z,2.73
2022-11-09T03:15:08.086Z,2.80
2022-11-09T03:17:36.866Z,3.10
2022-11-09T03:20:04.844Z,2.97
2022-11-09T03:22:32.918Z,2.77
2022-11-09T03:25:02.078Z,2.93
2022-11-09T03:27:31.063Z,3.50
2022-11-09T03:29:58.787Z,2.77
2022-11-09T03:32:26.537Z,3.50
2022-11-09T03:34:54.590Z,3.00
2022-11-09T03:37:22.349Z,2.90
2022-11-09T03:39:50.030Z,2.80
2022-11-09T03:42:17.686Z,3.10
2022-11-09T03:44:46.547Z,3.20
2022-11-09T03:47:14.042Z,2.97
2022-11-09T03:49:41.671Z,3.40
2022-11-09T03:52:09.534Z,2.90
2022-11-09T03:54:37.022Z,3.30
2022-11-09T03:57:04.832Z,2.80
2022-11-09T03:59:32.702Z,3.20
2022-11-09T04:02:01.843Z,3.17
2022-11-09T04:04:29.582Z,2.70
2022-11-09T04:06:57.271Z,3.07
2022-11-09T04:09:24.943Z,3.50
2022-11-09T04:11:52.446Z,3.00
2022-11-09T04:14:21.010Z,3.13
2022-11-09T04:16:48.560Z,3.23
2022-11-09T04:19:17.581Z,3.13
2022-11-09T04:21:45.276Z,3.20
2022-11-09T04:24:12.785Z,3.50
2022-11-09T04:26:40.357Z,3.50
2022-11-09T04:29:08.297Z,3.10
2022-11-09T04:31:35.817Z,3.03
2022-11-09T04:34:03.386Z,3.20
2022-11-09T04:36:33.157Z,3.70
2022-11-09T04:39:00.799Z,4.20
2022-11-09T04:41:28.540Z,3.80
2022-11-09T04:43:56.295Z,3.53
2022-11-09T04:46:23.999Z,3.50
2022-11-09T04:48:51.718Z,4.07
2022-11-09T04:51:19.637Z,3.60
2022-11-09T04:53:48.601Z,4.10
2022-11-09T04:56:16.571Z,3.93
2022-11-09T04:58:44.416Z,4.00
2022-11-09T05:01:13.150Z,4.77
2022-11-09T05:03:41.147Z,3.80
2022-11-09T05:06:22.829Z,4.00
2022-11-09T05:08:51.870Z,4.00
2022-11-09T05:11:19.364Z,3.93
2022-11-09T05:13:47.300Z,4.73
2022-11-09T05:16:15.001Z,3.77
2022-11-09T05:18:42.722Z,4.00
2022-11-09T05:21:10.615Z,4.10
2022-11-09T05:23:56.089Z,4.70
2022-11-09T05:26:25.394Z,3.97
2022-11-09T05:28:53.619Z,4.70
2022-11-09T05:31:21.126Z,5.00
2022-11-09T05:33:49.472Z,5.13
2022-11-09T05:36:17.145Z,4.20
2022-11-09T05:38:44.722Z,5.00
2022-11-09T05:41:12.550Z,4.77
2022-11-09T05:43:41.410Z,4.50
2022-11-09T05:46:09.101Z,4.20
2022-11-09T05:48:36.778Z,4.43
2022-11-09T05:51:04.636Z,4.77
2022-11-09T05:53:32.262Z,4.63
2022-11-09T05:56:02.892Z,4.90
2022-11-09T05:58:30.619Z,4.60
2022-11-09T06:01:00.444Z,4.77
2022-11-09T06:03:28.308Z,5.67
2022-11-09T06:05:55.802Z,5.60
2022-11-09T06:08:23.410Z,4.90
2022-11-09T06:10:50.937Z,4.73
2022-11-09T06:13:19.149Z,5.10
2022-11-09T06:15:53.150Z,4.70
2022-11-09T06:18:22.053Z,4.80
2022-11-09T06:20:51.728Z,4.93
2022-11-09T06:23:19.995Z,4.60
2022-11-09T06:25:48.693Z,4.83
2022-11-09T06:28:16.403Z,4.60
2022-11-09T06:30:44.124Z,4.70
2022-11-09T06:33:11.779Z,4.10
2022-11-09T06:35:40.653Z,4.70
2022-11-09T06:38:09.892Z,3.87
2022-11-09T06:40:37.830Z,4.40
2022-11-09T06:43:05.388Z,4.90
2022-11-09T06:45:33.087Z,4.70
2022-11-09T06:48:01.355Z,4.87
2022-11-09T06:50:29.976Z,4.90
2022-11-09T06:52:59.906Z,5.10
2022-11-09T06:55:28.387Z,4.43
2022-11-09T06:57:56.285Z,4.93
2022-11-09T07:00:24.516Z,5.03
2022-11-09T07:02:52.179Z,4.90
2022-11-09T07:05:19.692Z,5.37
2022-11-09T07:07:47.820Z,5.10
2022-11-09T07:10:16.977Z,5.40
2022-11-09T07:12:45.012Z,5.90
2022-11-09T07:15:13.245Z,5.60
2022-11-09T07:17:41.250Z,5.50
2022-11-09T07:20:09.754Z,5.37
2022-11-09T07:22:39.506Z,5.93
2022-11-09T07:25:08.281Z,5.90
2022-11-09T07:27:37.204Z,6.03
2022-11-09T07:30:05.669Z,6.90
2022-11-09T07:33:07.449Z,7.20
2022-11-09T07:35:22.518Z,6.40
2022-11-09T07:37:49.933Z,6.43
2022-11-09T07:40:17.790Z,6.57
2022-11-09T07:42:46.739Z,8.60
2022-11-09T07:45:14.434Z,7.50
2022-11-09T07:47:41.883Z,12.47
2022-11-09T07:50:10.289Z,7.63
2022-11-09T07:52:37.933Z,8.50
2022-11-09T07:55:05.940Z,6.93
2022-11-09T07:57:33.631Z,7.20
2022-11-09T08:00:02.778Z,6.70
2022-11-09T08:02:39.270Z,6.93
2022-11-09T08:05:07.377Z,7.33
2022-11-09T08:07:35.227Z,7.50
2022-11-09T08:10:03.569Z,7.50
2022-11-09T08:12:36.720Z,6.73
2022-11-09T08:15:07.120Z,7.17
2022-11-09T08:17:34.891Z,7.13
2022-11-09T08:20:02.418Z,8.47
2022-11-09T08:22:30.562Z,8.60
2022-11-09T08:24:59.447Z,8.87
2022-11-09T08:27:26.966Z,8.23
2022-11-09T08:29:54.707Z,7.27
2022-11-09T08:32:23.568Z,8.77
2022-11-09T08:34:51.125Z,8.90
2022-11-09T08:37:19.056Z,9.50
2022-11-09T08:39:46.562Z,7.80
2022-11-09T08:42:14.237Z,7.83
2022-11-09T08:44:42.203Z,7.50
2022-11-09T08:47:09.930Z,9.17
2022-11-09T08:49:38.766Z,7.30
2022-11-09T08:52:06.644Z,7.73
2022-11-09T08:54:34.382Z,6.90
2022-11-09T08:57:02.229Z,6.93
2022-11-09T08:59:29.968Z,7.13
2022-11-09T09:01:57.637Z,7.03
2022-11-09T09:04:25.350Z,6.93
2022-11-09T09:06:54.707Z,7.20
2022-11-09T09:09:22.605Z,7.10
2022-11-09T09:11:50.140Z,6.87
2022-11-09T09:14:18.864Z,6.40
2022-11-09T09:16:47.277Z,6.70
2022-11-09T09:19:14.966Z,5.80
2022-11-09T09:21:42.736Z,6.60
2022-11-09T09:24:11.624Z,6.60
2022-11-09T09:26:40.832Z,6.63
2022-11-09T09:29:08.936Z,6.23
2022-11-09T09:31:36.418Z,5.97
2022-11-09T09:34:05.070Z,6.27
2022-11-09T09:36:33.075Z,5.90
2022-11-09T09:39:00.708Z,6.33
2022-11-09T09:41:32.309Z,5.87
2022-11-09T09:44:01.159Z,6.30
2022-11-09T09:46:31.375Z,6.90
2022-11-09T09:49:00.883Z,5.70
2022-11-09T09:51:30.737Z,7.30
2022-11-09T09:54:00.334Z,6.57
2022-11-09T09:56:29.963Z,6.60
2022-11-09T09:59:00.026Z,6.87
2022-11-09T10:01:30.756Z,6.00
2022-11-09T10:03:58.508Z,6.07
2022-11-09T10:06:41.324Z,5.50
2022-11-09T10:09:16.467Z,5.27
2022-11-09T10:11:47.909Z,5.27
2022-11-09T10:14:42.610Z,4.80
2022-11-09T10:17:18.167Z,6.23
2022-11-09T10:19:52.362Z,6.13
2022-11-09T10:22:23.448Z,6.40
2022-11-09T10:25:18.404Z,5.47
2022-11-09T10:27:44.055Z,6.10
2022-11-09T10:30:13.966Z,5.03
2022-11-09T10:32:43.590Z,5.17
2022-11-09T10:35:16.439Z,5.73
2022-11-09T10:37:46.502Z,4.97
2022-11-09T10:40:18.798Z,5.50
2022-11-09T10:43:07.813Z,5.53
2022-11-09T10:45:59.264Z,4.97
2022-11-09T10:48:48.769Z,5.30
2022-11-09T10:51:36.735Z,5.00
2022-11-09T10:54:24.576Z,4.40
2022-11-09T10:57:12.994Z,4.47
2022-11-09T10:59:59.610Z,4.10
2022-11-09T11:02:47.060Z,4.57
2022-11-09T11:05:35.804Z,4.70
2022-11-09T11:08:23.776Z,4.40
2022-11-09T11:11:37.713Z,4.20
2022-11-09T11:14:28.125Z,4.07
2022-11-09T11:17:24.678Z,4.00
2022-11-09T11:20:30.227Z,3.80
2022-11-09T11:23:19.315Z,3.70
2022-11-09T11:34:59.725Z,3.67
2022-11-09T11:37:52.344Z,4.10
2022-11-09T11:40:44.106Z,3.80
2022-11-09T11:43:35.802Z,5.57
2022-11-09T11:46:26.578Z,3.67
2022-11-09T11:49:34.226Z,4.13
2022-11-09T11:52:24.557Z,4.27
2022-11-09T11:55:23.098Z,3.83
2022-11-09T11:58:19.779Z,3.70
2022-11-09T12:01:13.492Z,3.00
2022-11-09T12:04:04.196Z,3.57
2022-11-09T12:07:05.636Z,4.17
2022-11-09T12:10:07.930Z,4.57
2022-11-09T12:13:00.749Z,4.30
2022-11-09T12:15:53.429Z,3.60
2022-11-09T12:18:44.262Z,5.67
2022-11-09T12:25:47.730Z,6.13
2022-11-09T12:28:48.316Z,5.10
2022-11-09T12:31:42.808Z,3.10
2022-11-09T12:34:33.063Z,3.70
2022-11-09T12:37:22.476Z,3.37
2022-11-09T12:40:16.752Z,3.50
2022-11-09T12:43:05.869Z,3.23
2022-11-09T12:45:53.806Z,2.90
2022-11-09T12:48:42.173Z,3.30
2022-11-09T12:51:29.106Z,3.60
2022-11-09T12:54:15.377Z,3.33
2022-11-09T12:57:03.155Z,3.77
2022-11-09T12:59:50.220Z,3.20
2022-11-09T13:02:38.116Z,3.47
2022-11-09T13:05:30.351Z,3.53
2022-11-09T13:08:18.552Z,3.57
2022-11-09T13:11:18.765Z,3.10
2022-11-09T13:14:23.452Z,3.33
2022-11-09T13:17:28.673Z,3.27
2022-11-09T13:20:55.542Z,2.93
2022-11-09T13:24:03.864Z,3.00
2022-11-09T13:26:58.804Z,3.07
2022-11-09T13:29:55.105Z,2.77
2022-11-09T13:33:03.061Z,3.20
2022-11-09T13:36:22.819Z,3.30
2022-11-09T13:39:28.919Z,2.67
2022-11-09T13:42:27.680Z,3.13
2022-11-09T13:45:18.184Z,3.07
2022-11-09T13:48:05.820Z,3.10
2022-11-09T13:50:56.358Z,2.83
2022-11-09T13:53:53.093Z,2.77
2022-11-09T13:56:42.017Z,2.90
2022-11-09T13:59:30.215Z,2.80
2022-11-09T14:02:19.430Z,2.77
2022-11-09T14:05:06.357Z,2.93
2022-11-09T14:07:53.957Z,3.23
2022-11-09T14:10:46.631Z,2.70
2022-11-09T14:13:46.943Z,4.93
2022-11-09T14:16:38.766Z,2.80
2022-11-09T14:19:28.576Z,3.60
2022-11-09T14:22:16.993Z,4.10
2022-11-09T14:25:05.763Z,2.73
2022-11-09T14:27:57.475Z,2.90
2022-11-09T14:30:46.326Z,3.73
2022-11-09T14:33:34.783Z,2.77
2022-11-09T14:36:21.165Z,3.27
2022-11-09T14:39:17.758Z,3.43
2022-11-09T14:42:06.357Z,3.30
2022-11-09T14:44:52.955Z,3.70
2022-11-09T14:47:44.308Z,4.20
2022-11-09T14:50:32.612Z,3.80
2022-11-09T14:53:22.305Z,3.70
2022-11-09T14:56:12.597Z,3.60
2022-11-09T14:58:58.936Z,3.83
2022-11-09T15:01:57.198Z,4.07
2022-11-09T15:04:55.975Z,4.33
2022-11-09T15:07:46.797Z,4.60
2022-11-09T15:10:33.870Z,4.60
2022-11-09T15:13:21.519Z,5.07
2022-11-09T15:16:08.678Z,4.97
2022-11-09T15:18:56.030Z,5.23
2022-11-09T15:21:43.773Z,5.00
2022-11-09T15:24:30.469Z,5.10
2022-11-09T15:27:32.963Z,5.43
2022-11-09T15:30:29.765Z,6.97
2022-11-09T15:33:21.318Z,6.10
2022-11-09T15:36:24.200Z,6.47
2022-11-09T15:39:15.684Z,6.70
2022-11-09T15:42:02.278Z,6.57
2022-11-09T15:44:52.161Z,7.67
2022-11-09T15:47:39.420Z,7.93
2022-11-09T15:50:28.143Z,8.07
2022-11-09T15:53:15.601Z,6.20
2022-11-09T15:56:03.067Z,6.50
2022-11-09T15:58:52.695Z,6.53
2022-11-09T16:01:40.039Z,6.00
2022-11-09T16:04:26.878Z,6.40
2022-11-09T16:07:15.300Z,7.30
2022-11-09T16:10:01.448Z,6.50
2022-11-09T16:12:49.713Z,8.67
2022-11-09T16:15:37.444Z,5.87
2022-11-09T16:18:26.086Z,7.80
2022-11-09T16:21:14.216Z,7.37
2022-11-09T16:24:00.409Z,6.20
2022-11-09T16:26:46.520Z,7.27
2022-11-09T16:29:34.716Z,9.03
2022-11-09T16:32:21.931Z,8.37
2022-11-09T16:35:26.205Z,7.70
2022-11-09T16:38:14.453Z,8.23
2022-11-09T16:41:01.433Z,7.50
2022-11-09T16:43:48.910Z,7.43
2022-11-09T16:46:36.395Z,7.27
2022-11-09T16:49:23.130Z,8.20
2022-11-09T16:52:09.359Z,6.57
2022-11-09T16:54:56.057Z,7.40
2022-11-09T16:57:42.357Z,8.60
2022-11-09T17:00:48.783Z,8.60
2022-11-09T17:03:37.701Z,9.70
2022-11-09T17:06:24.352Z,9.30
2022-11-09T17:09:10.848Z,10.00
2022-11-09T17:11:58.815Z,8.97
2022-11-09T17:14:45.276Z,8.40
2022-11-09T17:17:31.909Z,11.07
2022-11-09T17:20:19.659Z,10.27
2022-11-09T17:23:06.589Z,9.30
2022-11-09T17:25:57.893Z,10.07
2022-11-09T17:28:44.673Z,9.20
2022-11-09T17:31:31.282Z,8.70
2022-11-09T17:34:18.314Z,8.80
2022-11-09T17:37:05.993Z,9.83
2022-11-09T17:39:52.473Z,10.60
2022-11-09T17:42:39.799Z,9.50
2022-11-09T17:45:26.299Z,10.37
2022-11-09T17:48:12.374Z,17.67
2022-11-09T17:50:59.162Z,12.07
2022-11-09T17:53:46.893Z,11.50
2022-11-09T17:56:34.249Z,11.40
2022-11-09T17:59:20.397Z,9.83
2022-11-09T18:02:07.512Z,10.87
2022-11-09T18:04:53.613Z,11.70
2022-11-09T18:07:40.538Z,11.87
2022-11-09T18:10:28.242Z,11.30
2022-11-09T18:13:14.762Z,8.80
2022-11-09T18:16:05.311Z,8.43
2022-11-09T18:18:51.726Z,9.13
2022-11-09T18:21:38.321Z,14.20
2022-11-09T18:24:24.954Z,9.90
2022-11-09T18:27:12.661Z,9.73
2022-11-09T18:29:59.009Z,10.07
2022-11-09T18:32:45.032Z,10.10
2022-11-09T18:35:31.585Z,9.87
2022-11-09T18:38:20.240Z,9.27
2022-11-09T18:41:08.490Z,6.57
2022-11-09T18:43:57.748Z,8.80
2022-11-09T18:46:44.264Z,8.17
2022-11-09T18:49:30.699Z,8.80
2022-11-09T18:52:17.738Z,7.37
2022-11-09T18:55:05.014Z,6.70
2022-11-09T18:57:51.698Z,7.20
2022-11-09T19:00:39.810Z,7.40
2022-11-09T19:03:26.733Z,6.90
2022-11-09T19:06:14.622Z,5.97
2022-11-09T19:09:18.215Z,5.40
2022-11-09T19:12:06.586Z,5.70
2022-11-09T19:14:53.168Z,5.93
2022-11-09T19:17:41.234Z,8.73
2022-11-09T19:20:27.851Z,7.07
2022-11-09T19:23:15.061Z,7.50
2022-11-09T19:26:03.058Z,9.90
2022-11-09T19:28:49.373Z,8.00
2022-11-09T19:31:36.655Z,6.73
2022-11-09T19:34:24.021Z,5.10
2022-11-09T19:37:11.402Z,5.30
2022-11-09T19:39:57.555Z,6.13
2022-11-09T19:42:43.971Z,6.10
2022-11-09T19:45:30.273Z,7.63
2022-11-09T19:48:17.159Z,7.33
2022-11-09T19:51:05.424Z,6.63
2022-11-09T19:53:52.611Z,7.47
2022-11-09T19:56:39.061Z,7.90
2022-11-09T19:59:25.376Z,7.17
2022-11-09T20:02:12.038Z,7.80
2022-11-09T20:04:59.300Z,10.27
2022-11-09T20:07:46.789Z,9.67
2022-11-09T20:10:36.504Z,9.57
2022-11-09T20:13:24.309Z,9.50
2022-11-09T20:16:11.787Z,9.40
2022-11-09T20:18:58.597Z,8.73
2022-11-09T20:21:45.597Z,9.50
2022-11-09T20:24:33.564Z,9.50
2022-11-09T20:27:20.472Z,8.70
2022-11-09T20:30:07.518Z,8.60
2022-11-09T20:32:53.929Z,8.47
2022-11-09T20:35:45.722Z,8.70
2022-11-09T20:38:33.202Z,9.17
2022-11-09T20:41:25.215Z,9.53
2022-11-09T20:44:12.557Z,8.87
2022-11-09T20:46:58.793Z,9.20
2022-11-09T20:49:47.223Z,8.80
2022-11-09T20:52:33.593Z,9.17
2022-11-09T20:55:20.457Z,8.40
2022-11-09T20:58:11.295Z,7.70
2022-11-09T21:01:02.321Z,7.93
2022-11-09T21:03:50.746Z,8.63
2022-11-09T21:06:37.550Z,7.70
2022-11-09T21:09:24.053Z,8.77
2022-11-09T21:12:22.562Z,10.47
2022-11-09T21:15:13.958Z,9.63
2022-11-09T21:18:00.554Z,9.20
2022-11-09T21:20:47.038Z,10.10
2022-11-09T21:23:51.485Z,9.33
2022-11-09T21:26:55.588Z,9.80
2022-11-09T21:29:51.157Z,7.70
2022-11-09T21:32:38.886Z,7.40
2022-11-09T21:35:25.210Z,7.63
2022-11-09T21:38:11.768Z,7.10
2022-11-09T21:41:05.355Z,7.30
2022-11-09T21:43:53.824Z,7.20
2022-11-09T21:46:40.930Z,6.37
2022-11-09T21:49:28.838Z,6.40
2022-11-09T21:52:17.161Z,9.47
2022-11-09T21:55:03.685Z,7.67
2022-11-09T21:57:51.533Z,5.83
2022-11-09T22:00:38.067Z,6.40
2022-11-09T22:03:24.715Z,4.80
2022-11-09T22:06:12.731Z,4.80
2022-11-09T22:08:59.259Z,4.83
2022-11-09T22:12:03.590Z,4.77
2022-11-09T22:15:07.739Z,3.87
2022-11-09T22:17:54.203Z,4.27
2022-11-09T22:20:55.066Z,4.40
2022-11-09T22:23:43.164Z,4.30
2022-11-09T22:26:30.756Z,5.70
2022-11-09T22:29:16.839Z,4.30
2022-11-09T22:32:03.346Z,4.70
2022-11-09T22:34:49.579Z,4.73
2022-11-09T22:37:36.409Z,4.47
2022-11-09T22:40:24.065Z,4.37
2022-11-09T22:43:11.003Z,4.13
2022-11-09T22:45:57.358Z,4.40
2022-11-09T22:48:45.143Z,3.97
2022-11-09T22:51:31.562Z,3.50
2022-11-09T22:54:18.314Z,4.13
2022-11-09T22:57:06.225Z,3.60
2022-11-09T22:59:52.475Z,3.53
2022-11-09T23:02:38.981Z,5.60
2022-11-09T23:05:25.737Z,4.17
2022-11-09T23:08:11.889Z,3.37
2022-11-09T23:10:59.381Z,3.77
2022-11-09T23:13:48.830Z,3.90
2022-11-09T23:16:35.479Z,3.30
2022-11-09T23:19:20.513Z,3.30
2022-11-09T23:22:07.381Z,3.60
2022-11-09T23:25:11.206Z,4.00
2022-11-09T23:27:58.053Z,4.50
2022-11-09T23:30:45.847Z,3.50
2022-11-09T23:33:32.849Z,3.10
2022-11-09T23:36:19.559Z,2.77
2022-11-09T23:39:05.708Z,2.90
2022-11-09T23:41:52.072Z,2.73
2022-11-09T23:44:39.016Z,2.87
2022-11-09T23:47:26.638Z,3.80
2022-11-09T23:50:13.538Z,2.70
2022-11-09T23:53:00.007Z,2.93
2022-11-09T23:55:46.548Z,2.40
2022-11-09T23:58:33.375Z,2.80
